Time;durP1;ratioP1;P1;durP2;ratioP2;P2;SDS_P1;SDS_P2;PMS_P1;PMS_P2;Temp;Humidity;BMP_temperature;BMP_pressure;BME280_temperature;BME280_humidity;BME280_pressure;Samples;Min_cycle;Max_cycle;Signal;HPM_P1;HPM_P2
2021/12/02 00:00:55;;;;;;;2.63;0.50;;;;;;;1.86;100.00;91459.41;2095762;28;20024;-87
2021/12/02 00:01:56;;;;;;;1.23;0.40;;;;;;;1.80;100.00;91459.13;2084804;28;20037;-88
2021/12/02 00:02:57;;;;;;;0.50;0.43;;;;;;;1.89;100.00;91461.22;2085344;28;20029;-87
2021/12/02 00:03:59;;;;;;;0.40;0.40;;;;;;;1.95;100.00;91463.00;2084315;28;20067;-88
2021/12/02 00:05:02;;;;;;;0.40;0.40;;;;;;;2.09;100.00;91467.28;2087942;28;20255;-85
2021/12/02 00:06:07;;;;;;;0.60;0.50;;;;;;;2.24;100.00;91462.53;2090937;28;20071;-87
2021/12/02 00:07:08;;;;;;;0.20;0.20;;;;;;;2.06;100.00;91460.16;2091802;28;20017;-89
2021/12/02 00:08:09;;;;;;;0.40;0.40;;;;;;;2.04;100.00;91456.47;2097646;28;20020;-86
2021/12/02 00:09:11;;;;;;;0.38;0.30;;;;;;;1.90;100.00;91463.47;2090213;28;20020;-86
2021/12/02 00:10:14;;;;;;;0.30;0.30;;;;;;;1.91;100.00;91467.56;2094965;28;20047;-87
2021/12/02 00:11:16;;;;;;;0.43;0.43;;;;;;;1.97;100.00;91452.03;2098227;28;20028;-86
2021/12/02 00:12:17;;;;;;;0.30;0.30;;;;;;;1.99;100.00;91453.16;2090676;28;20028;-87
2021/12/02 00:13:23;;;;;;;0.77;0.43;;;;;;;1.88;100.00;91454.47;2082291;28;20645;-86
2021/12/02 00:14:26;;;;;;;0.50;0.50;;;;;;;1.95;100.00;91455.09;2092638;28;20425;-87
2021/12/02 00:15:43;;;;;;;0.40;0.40;;;;;;;1.86;100.00;91452.25;2098600;28;20054;-87
2021/12/02 00:21:06;;;;;;;0.20;0.20;;;;;;;1.72;100.00;91450.56;2104098;28;20020;-86
2021/12/02 00:22:10;;;;;;;2.17;0.40;;;;;;;1.89;100.00;91456.72;2109165;28;20122;-87
2021/12/02 00:23:34;;;;;;;0.40;0.40;;;;;;;2.01;100.00;91455.38;2105709;28;20048;-86
2021/12/02 00:24:37;;;;;;;0.30;0.30;;;;;;;2.01;100.00;91458.00;2084856;28;20037;-87
2021/12/02 00:25:38;;;;;;;0.40;0.40;;;;;;;2.06;100.00;91465.44;2083560;28;20770;-87
2021/12/02 00:26:39;;;;;;;1.75;0.30;;;;;;;1.83;100.00;91460.19;2079678;28;20071;-86
2021/12/02 00:27:41;;;;;;;0.60;0.40;;;;;;;1.87;100.00;91463.50;2087001;28;20041;-88
2021/12/02 00:28:43;;;;;;;0.40;0.40;;;;;;;1.90;100.00;91460.81;2093569;28;20021;-86
2021/12/02 00:29:46;;;;;;;0.50;0.50;;;;;;;1.97;100.00;91457.31;2086549;28;20022;-86
2021/12/02 00:30:47;;;;;;;0.50;0.50;;;;;;;1.92;100.00;91455.16;2094034;28;20036;-87
2021/12/02 00:31:50;;;;;;;0.93;0.35;;;;;;;1.87;100.00;91458.97;2090185;28;20458;-89
2021/12/02 00:32:53;;;;;;;0.43;0.35;;;;;;;1.95;100.00;91452.47;2090761;28;20044;-88
2021/12/02 00:33:57;;;;;;;0.60;0.40;;;;;;;1.70;100.00;91452.84;2098403;28;20580;-87
2021/12/02 00:34:58;;;;;;;0.63;0.50;;;;;;;1.81;100.00;91457.97;2082877;28;20474;-88
2021/12/02 00:35:59;;;;;;;1.98;0.65;;;;;;;1.68;100.00;91457.03;2104072;28;20063;-86
2021/12/02 00:37:01;;;;;;;1.55;0.38;;;;;;;1.56;100.00;91449.69;2098237;28;20055;-86
2021/12/02 00:38:05;;;;;;;2.35;0.70;;;;;;;1.61;100.00;91451.88;2096272;28;20508;-87
2021/12/02 00:39:12;;;;;;;0.63;0.63;;;;;;;1.60;100.00;91451.13;2098543;28;20051;-87
2021/12/02 00:40:13;;;;;;;0.50;0.50;;;;;;;1.70;100.00;91457.38;2083902;28;20029;-87
2021/12/02 00:41:17;;;;;;;0.52;0.50;;;;;;;1.63;100.00;91460.88;2090166;28;20013;-89
2021/12/02 00:42:19;;;;;;;0.45;0.45;;;;;;;1.59;100.00;91457.56;2094044;28;20381;-88
2021/12/02 00:43:20;;;;;;;2.70;0.60;;;;;;;1.68;100.00;91459.69;2082001;28;20120;-90
2021/12/02 00:44:21;;;;;;;1.48;0.50;;;;;;;1.67;100.00;91458.19;2082140;28;20032;-88
2021/12/02 00:45:23;;;;;;;2.35;0.40;;;;;;;1.64;100.00;91464.25;2097719;28;20021;-88
2021/12/02 00:46:27;;;;;;;1.27;0.50;;;;;;;1.61;100.00;91460.53;2082027;28;20356;-88
2021/12/02 00:47:28;;;;;;;0.50;0.50;;;;;;;1.47;100.00;91458.84;2096266;28;20032;-87
2021/12/02 00:48:29;;;;;;;0.50;0.50;;;;;;;1.57;100.00;91464.34;2104974;28;20158;-88
2021/12/02 00:49:30;;;;;;;3.10;0.70;;;;;;;1.62;100.00;91466.53;2089863;28;20096;-86
2021/12/02 00:50:32;;;;;;;0.47;0.40;;;;;;;1.60;100.00;91468.84;2081891;28;20028;-88
2021/12/02 00:51:35;;;;;;;1.55;0.50;;;;;;;1.71;100.00;91466.75;2090421;28;20031;-89
2021/12/02 00:52:37;;;;;;;0.90;0.38;;;;;;;1.87;100.00;91472.16;2084386;28;20093;-87
2021/12/02 00:53:45;;;;;;;3.00;0.80;;;;;;;1.77;100.00;91473.81;2085219;28;20022;-88
2021/12/02 00:54:48;;;;;;;0.38;0.38;;;;;;;1.70;100.00;91467.91;2090878;28;20032;-88
2021/12/02 00:55:52;;;;;;;3.60;0.60;;;;;;;1.53;100.00;91472.31;2090032;28;20024;-87
2021/12/02 00:56:54;;;;;;;3.28;0.80;;;;;;;1.46;100.00;91465.25;2082579;28;20427;-86
2021/12/02 00:57:56;;;;;;;1.67;0.80;;;;;;;1.40;100.00;91460.84;2082075;28;20029;-88
2021/12/02 00:58:58;;;;;;;0.40;0.40;;;;;;;1.38;100.00;91477.03;2081881;28;20049;-86
2021/12/02 01:00:03;;;;;;;2.17;0.70;;;;;;;1.46;100.00;91467.16;2082018;28;20726;-88
2021/12/02 01:01:04;;;;;;;4.13;0.90;;;;;;;1.44;100.00;91466.78;2082149;28;20580;-89
2021/12/02 01:02:09;;;;;;;1.00;0.60;;;;;;;1.45;100.00;91471.69;2081566;28;20426;-88
2021/12/02 01:03:15;;;;;;;0.65;0.60;;;;;;;1.41;100.00;91478.88;2095854;28;20021;-88
2021/12/02 01:04:24;;;;;;;2.17;1.50;;;;;;;1.55;100.00;91474.56;2107310;28;20020;-88
2021/12/02 01:05:26;;;;;;;1.60;0.60;;;;;;;1.39;100.00;91477.78;2107201;28;20020;-87
2021/12/02 01:06:27;;;;;;;2.50;0.60;;;;;;;1.32;100.00;91475.22;2091153;28;20442;-88
2021/12/02 01:07:30;;;;;;;1.00;0.60;;;;;;;1.20;100.00;91477.28;2098198;28;20039;-86
2021/12/02 01:08:33;;;;;;;1.67;0.65;;;;;;;1.31;100.00;91474.50;2084457;28;20025;-86
2021/12/02 01:09:35;;;;;;;3.05;0.85;;;;;;;1.38;100.00;91477.03;2073809;28;20029;-88
2021/12/02 01:10:36;;;;;;;1.27;0.60;;;;;;;1.56;100.00;91468.88;2081965;28;20044;-87
2021/12/02 01:11:40;;;;;;;1.80;0.88;;;;;;;1.74;100.00;91471.25;2089908;28;20438;-88
2021/12/02 01:12:46;;;;;;;5.35;0.60;;;;;;;1.71;100.00;91470.16;2098344;28;20522;-87
2021/12/02 01:13:52;;;;;;;0.75;0.55;;;;;;;1.57;100.00;91461.72;2097337;28;20524;-86
2021/12/02 01:14:56;;;;;;;0.90;0.50;;;;;;;1.54;100.00;91479.06;2090893;28;20029;-86
2021/12/02 01:15:57;;;;;;;2.00;0.47;;;;;;;1.60;100.00;91471.47;2090228;28;20025;-88
2021/12/02 01:16:58;;;;;;;5.35;0.60;;;;;;;1.68;100.00;91470.97;2089721;28;20108;-88
2021/12/02 01:18:00;;;;;;;2.00;0.73;;;;;;;1.66;100.00;91469.84;2089802;28;20027;-87
2021/12/02 01:19:07;;;;;;;2.20;0.70;;;;;;;1.59;100.00;91470.72;2082464;28;20086;-88
2021/12/02 01:20:09;;;;;;;1.48;0.50;;;;;;;1.59;100.00;91480.50;2083385;28;20021;-89
2021/12/02 01:21:16;;;;;;;1.23;0.55;;;;;;;1.64;100.00;91474.78;2094130;28;20017;-89
2021/12/02 01:22:17;;;;;;;0.73;0.40;;;;;;;1.67;100.00;91469.47;2106900;28;20086;-87
2021/12/02 01:23:21;;;;;;;2.28;0.90;;;;;;;1.77;100.00;91478.34;2097940;28;20029;-88
2021/12/02 01:24:24;;;;;;;0.73;0.45;;;;;;;1.66;100.00;91470.59;2098403;28;20028;-87
2021/12/02 01:25:27;;;;;;;3.22;0.60;;;;;;;1.80;100.00;91479.41;2090509;28;20452;-88
2021/12/02 01:26:33;;;;;;;0.57;0.50;;;;;;;1.70;100.00;91473.91;2098528;28;20115;-86
2021/12/02 01:27:36;;;;;;;2.50;0.57;;;;;;;1.69;100.00;91467.16;2111394;28;20468;-87
2021/12/02 01:28:37;;;;;;;0.73;0.52;;;;;;;1.58;100.00;91465.84;2097998;28;20534;-88
2021/12/02 01:29:40;;;;;;;1.58;0.60;;;;;;;1.85;100.00;91465.81;2081568;28;20720;-88
2021/12/02 01:30:41;;;;;;;1.55;0.75;;;;;;;1.74;100.00;91469.34;2081934;28;20120;-86
2021/12/02 01:31:43;;;;;;;1.10;0.60;;;;;;;1.75;100.00;91465.56;2089852;28;20082;-87
2021/12/02 01:32:46;;;;;;;0.50;0.50;;;;;;;1.62;100.00;91458.63;2089671;28;20021;-89
2021/12/02 01:33:48;;;;;;;1.70;0.50;;;;;;;1.75;100.00;91467.44;2090026;28;20032;-86
2021/12/02 01:34:52;;;;;;;1.23;0.50;;;;;;;1.69;100.00;91458.53;2093648;28;20024;-86
2021/12/02 01:35:59;;;;;;;2.75;0.77;;;;;;;1.85;100.00;91460.56;2103168;28;20409;-89
2021/12/02 01:37:02;;;;;;;0.75;0.60;;;;;;;2.02;100.00;91464.78;2083432;28;20095;-87
2021/12/02 01:38:03;;;;;;;0.60;0.60;;;;;;;1.83;100.00;91466.19;2091595;28;20025;-87
2021/12/02 01:39:05;;;;;;;0.95;0.50;;;;;;;1.86;100.00;91462.78;2085838;28;20119;-89
2021/12/02 01:40:07;;;;;;;1.35;0.68;;;;;;;1.70;100.00;91465.28;2081797;28;20029;-88
2021/12/02 01:41:10;;;;;;;0.60;0.55;;;;;;;1.82;100.00;91469.97;2082767;28;20017;-87
2021/12/02 01:42:24;;;;;;;1.25;0.70;;;;;;;1.89;100.00;91472.50;2081276;28;20112;-88
2021/12/02 01:43:52;;;;;;;2.00;0.90;;;;;;;1.93;100.00;91475.84;2083102;28;20025;-86
2021/12/02 01:44:59;;;;;;;0.68;0.60;;;;;;;1.67;100.00;91469.47;2093693;28;20404;-87
2021/12/02 01:46:02;;;;;;;1.77;0.75;;;;;;;1.76;100.00;91471.59;2085189;28;20035;-88
2021/12/02 01:47:10;;;;;;;0.98;0.40;;;;;;;1.79;100.00;91468.16;2073635;28;20026;-87
2021/12/02 01:48:19;;;;;;;0.52;0.52;;;;;;;1.57;100.00;91472.25;2081140;28;20029;-87
2021/12/02 01:49:26;;;;;;;1.05;0.73;;;;;;;1.60;100.00;91474.09;2099189;28;20042;-86
2021/12/02 01:50:27;;;;;;;2.53;0.85;;;;;;;1.86;100.00;91478.56;2083116;28;20033;-89
2021/12/02 01:51:29;;;;;;;0.50;0.50;;;;;;;1.83;100.00;91468.84;2096829;28;20051;-86
2021/12/02 01:52:32;;;;;;;2.25;0.60;;;;;;;1.91;100.00;91472.84;2097466;28;20070;-88
2021/12/02 01:53:36;;;;;;;0.40;0.40;;;;;;;1.87;100.00;91477.44;2098087;28;20055;-85
2021/12/02 01:54:44;;;;;;;3.70;0.70;;;;;;;1.74;100.00;91477.25;2099127;28;20485;-88
2021/12/02 01:55:54;;;;;;;1.55;0.45;;;;;;;1.65;100.00;91474.38;2091300;28;20037;-88
2021/12/02 01:57:09;;;;;;;2.70;0.80;;;;;;;1.60;100.00;91466.19;2083888;28;20017;-87
2021/12/02 01:58:17;;;;;;;1.10;0.60;;;;;;;1.45;100.00;91481.47;2087762;28;20049;-89
2021/12/02 01:59:21;;;;;;;0.45;0.40;;;;;;;1.49;100.00;91477.63;2100031;28;20082;-86
2021/12/02 02:00:26;;;;;;;1.48;0.50;;;;;;;1.55;100.00;91479.81;2098178;28;20430;-87
2021/12/02 02:01:28;;;;;;;0.77;0.50;;;;;;;1.71;100.00;91480.69;2090516;28;20489;-88
2021/12/02 02:02:38;;;;;;;2.88;0.82;;;;;;;1.77;100.00;91483.63;2089478;28;20021;-85
2021/12/02 02:03:40;;;;;;;0.47;0.47;;;;;;;1.49;100.00;91475.00;2091638;28;20875;-88
2021/12/02 02:04:45;;;;;;;1.02;0.57;;;;;;;1.48;100.00;91478.75;2091176;28;20390;-86
2021/12/02 02:05:55;;;;;;;1.00;0.43;;;;;;;1.45;100.00;91476.94;2097149;28;20024;-87
2021/12/02 02:07:01;;;;;;;;;;;;;;;1.50;100.00;91475.75;2099562;28;20083;-88
2021/12/02 02:08:11;;;;;;;0.65;0.52;;;;;;;1.31;100.00;91476.38;2090898;28;19909;-87
2021/12/02 02:09:12;;;;;;;1.00;0.70;;;;;;;1.17;100.00;91479.97;2096086;28;20059;-90
2021/12/02 02:10:42;;;;;;;0.63;0.57;;;;;;;1.10;100.00;91478.19;2081437;28;20123;-89
2021/12/02 02:11:43;;;;;;;1.90;0.52;;;;;;;1.06;100.00;91484.63;2097552;28;20123;-87
2021/12/02 02:12:45;;;;;;;2.10;0.63;;;;;;;1.07;100.00;91478.22;2097740;28;20078;-87
2021/12/02 02:13:48;;;;;;;0.40;0.40;;;;;;;1.02;100.00;91489.94;2097394;28;20032;-89
2021/12/02 02:14:56;;;;;;;2.83;0.70;;;;;;;1.00;100.00;91481.66;2089885;28;20029;-88
2021/12/02 02:16:00;;;;;;;0.60;0.55;;;;;;;1.09;100.00;91484.56;2082979;28;20482;-88
2021/12/02 02:17:08;;;;;;;1.10;0.40;;;;;;;0.93;100.00;91482.53;2083167;28;20021;-87
2021/12/02 02:18:18;;;;;;;1.80;0.55;;;;;;;0.92;100.00;91478.41;2083279;28;20040;-87
2021/12/02 02:19:19;;;;;;;3.40;0.50;;;;;;;1.02;100.00;91482.03;2082324;28;20538;-89
2021/12/02 02:20:47;;;;;;;0.70;0.50;;;;;;;0.92;100.00;91488.16;2073275;28;20471;-88
2021/12/02 02:21:49;;;;;;;1.25;0.40;;;;;;;0.99;100.00;91491.44;2088278;28;20020;-89
2021/12/02 02:22:50;;;;;;;1.40;0.60;;;;;;;0.91;100.00;91479.53;2089264;28;20032;-86
2021/12/02 02:23:59;;;;;;;2.58;0.68;;;;;;;0.90;100.00;91478.03;2097850;28;20027;-88
2021/12/02 02:25:00;;;;;;;1.90;0.60;;;;;;;0.84;100.00;91482.25;2094423;28;20028;-86
2021/12/02 02:26:02;;;;;;;2.10;0.50;;;;;;;0.89;100.00;91486.34;2092323;28;20120;-87
2021/12/02 02:27:04;;;;;;;1.27;0.52;;;;;;;0.95;100.00;91487.38;2089028;28;20451;-88
2021/12/02 02:28:05;;;;;;;1.38;0.63;;;;;;;0.84;100.00;91481.53;2089741;28;20051;-86
2021/12/02 02:29:09;;;;;;;1.10;0.50;;;;;;;1.05;100.00;91489.13;2095842;28;20020;-89
2021/12/02 02:30:11;;;;;;;2.17;0.77;;;;;;;0.97;100.00;91482.47;2090037;28;20027;-88
2021/12/02 02:31:19;;;;;;;2.95;0.70;;;;;;;0.98;100.00;91482.09;2084143;28;20373;-88
2021/12/02 02:32:25;;;;;;;0.82;0.57;;;;;;;0.96;100.00;91484.34;2094415;28;20044;-88
2021/12/02 02:33:33;;;;;;;4.93;0.60;;;;;;;0.95;100.00;91477.59;2082563;28;20060;-87
2021/12/02 02:34:35;;;;;;;1.05;0.50;;;;;;;1.03;100.00;91482.78;2091250;28;20035;-86
2021/12/02 02:35:36;;;;;;;1.63;0.65;;;;;;;1.02;100.00;91484.66;2089542;28;20021;-87
2021/12/02 02:36:40;;;;;;;1.60;0.60;;;;;;;1.03;100.00;91480.16;2083239;28;20025;-90
2021/12/02 02:37:42;;;;;;;1.20;0.50;;;;;;;0.97;100.00;91480.59;2091993;28;20505;-89
2021/12/02 02:38:45;;;;;;;0.85;0.50;;;;;;;0.91;100.00;91474.25;2098069;28;20063;-89
2021/12/02 02:39:46;;;;;;;0.60;0.43;;;;;;;0.94;100.00;91470.84;2089846;28;20025;-89
2021/12/02 02:40:48;;;;;;;1.58;0.60;;;;;;;0.90;100.00;91472.78;2088891;28;20025;-87
2021/12/02 02:41:57;;;;;;;2.22;0.47;;;;;;;0.88;100.00;91472.44;2098189;28;20029;-87
2021/12/02 02:43:05;;;;;;;2.83;0.60;;;;;;;0.85;100.00;91467.22;2097370;28;20025;-87
2021/12/02 02:44:08;;;;;;;0.75;0.60;;;;;;;0.79;100.00;91460.91;2091384;28;20025;-85
2021/12/02 02:45:09;;;;;;;3.88;0.73;;;;;;;0.88;100.00;91464.56;2089413;28;20033;-87
2021/12/02 02:46:20;;;;;;;1.98;0.70;;;;;;;0.89;100.00;91466.03;2089416;28;20021;-87
2021/12/02 02:47:26;;;;;;;0.57;0.57;;;;;;;0.84;100.00;91466.47;2082268;28;20025;-89
2021/12/02 02:48:35;;;;;;;2.28;0.60;;;;;;;0.91;100.00;91463.00;2084483;28;20501;-89
2021/12/02 02:49:42;;;;;;;0.65;0.50;;;;;;;1.12;100.00;91465.34;2098723;28;20109;-86
2021/12/02 02:50:50;;;;;;;1.55;0.60;;;;;;;1.10;100.00;91462.41;2093634;28;20028;-88
2021/12/02 02:52:00;;;;;;;0.70;0.68;;;;;;;1.07;100.00;91462.44;2082872;28;20610;-87
2021/12/02 02:53:17;;;;;;;2.17;0.70;;;;;;;1.13;100.00;91460.84;2083756;28;20021;-88
2021/12/02 02:54:24;;;;;;;2.22;0.80;;;;;;;1.22;100.00;91474.25;2085838;28;20029;-87
2021/12/02 02:55:30;;;;;;;1.88;0.70;;;;;;;1.18;100.00;91471.66;2084450;28;20359;-88
2021/12/02 02:56:38;;;;;;;1.33;0.60;;;;;;;1.16;100.00;91462.69;2090560;28;20520;-85
2021/12/02 02:58:00;;;;;;;2.70;0.70;;;;;;;1.16;100.00;91465.31;2096661;28;20082;-88
2021/12/02 03:01:06;;;;;;;2.80;0.60;;;;;;;1.02;100.00;91470.78;2101112;28;20027;-87
2021/12/02 03:02:24;;;;;;;2.33;0.73;;;;;;;0.92;100.00;91464.47;2091516;28;20031;-88
2021/12/02 03:03:39;;;;;;;2.22;0.60;;;;;;;0.94;100.00;91478.00;2088999;28;20051;-87
2021/12/02 03:04:54;;;;;;;2.72;0.60;;;;;;;0.95;100.00;91469.72;2090305;28;20105;-87
2021/12/02 03:06:37;;;;;;;1.05;0.50;;;;;;;0.93;100.00;91471.25;2086230;28;20052;-88
2021/12/02 03:08:45;;;;;;;2.80;0.70;;;;;;;0.81;100.00;91459.38;2108747;28;20464;-87
2021/12/02 03:11:03;;;;;;;2.45;1.70;;;;;;;0.69;100.00;91465.88;2092642;28;20017;-88
2021/12/02 03:12:16;;;;;;;2.17;0.65;;;;;;;0.70;100.00;91469.25;2082352;28;20494;-87
2021/12/02 03:13:35;;;;;;;1.15;0.50;;;;;;;0.67;100.00;91472.69;2085629;28;20508;-89
2021/12/02 03:14:54;;;;;;;1.80;0.60;;;;;;;0.81;100.00;91477.78;2089417;28;20032;-87
2021/12/02 03:17:22;;;;;;;1.02;0.50;;;;;;;0.75;100.00;91471.47;2094012;28;20047;-87
2021/12/02 03:18:23;;;;;;;2.90;0.73;;;;;;;0.86;100.00;91473.97;2083891;28;20618;-88
2021/12/02 03:19:30;;;;;;;1.58;0.60;;;;;;;0.72;100.00;91473.00;2090619;28;20176;-89
2021/12/02 03:20:31;;;;;;;2.30;0.70;;;;;;;0.69;100.00;91479.03;2088162;28;20072;-86
2021/12/02 03:21:35;;;;;;;2.25;0.70;;;;;;;0.68;100.00;91474.94;2090863;28;20027;-86
2021/12/02 03:22:38;;;;;;;2.50;0.90;;;;;;;0.75;100.00;91479.38;2101223;28;20047;-87
2021/12/02 03:23:59;;;;;;;1.27;0.57;;;;;;;0.73;100.00;91474.47;2096583;28;20074;-87
2021/12/02 03:25:08;;;;;;;3.72;0.60;;;;;;;0.71;100.00;91479.41;2090805;28;20073;-86
2021/12/02 03:26:14;;;;;;;2.90;0.63;;;;;;;0.68;100.00;91471.56;2092570;28;20021;-88
2021/12/02 03:27:17;;;;;;;2.45;0.85;;;;;;;0.62;100.00;91467.88;2091925;28;20103;-87
2021/12/02 03:28:26;;;;;;;3.00;0.50;;;;;;;0.62;100.00;91481.75;2091468;28;20800;-90
2021/12/02 03:29:28;;;;;;;0.45;0.45;;;;;;;0.71;100.00;91476.78;2077927;28;20025;-88
2021/12/02 03:30:34;;;;;;;2.72;0.77;;;;;;;0.62;100.00;91467.88;2097828;28;20525;-86
2021/12/02 03:31:39;;;;;;;5.70;0.60;;;;;;;0.57;100.00;91470.91;2087005;28;20033;-88
2021/12/02 03:32:45;;;;;;;1.92;0.60;;;;;;;0.82;100.00;91468.75;2099867;28;20924;-89
2021/12/02 03:33:47;;;;;;;2.05;0.70;;;;;;;0.70;100.00;91470.03;2098899;28;20085;-89
2021/12/02 03:34:50;;;;;;;0.82;0.50;;;;;;;0.78;100.00;91468.03;2090753;28;20049;-88
2021/12/02 03:35:51;;;;;;;1.65;0.50;;;;;;;0.82;100.00;91468.75;2082649;28;20039;-86
2021/12/02 03:36:53;;;;;;;2.13;0.55;;;;;;;0.65;100.00;91472.34;2082126;28;20029;-86
2021/12/02 03:37:57;;;;;;;5.72;0.80;;;;;;;0.56;100.00;91470.19;2086745;28;20021;-87
2021/12/02 03:38:58;;;;;;;4.43;0.70;;;;;;;0.53;100.00;91468.34;2084997;28;20025;-88
2021/12/02 03:40:00;;;;;;;0.75;0.52;;;;;;;0.54;100.00;91472.47;2095977;28;20063;-86
2021/12/02 03:41:02;;;;;;;0.68;0.50;;;;;;;0.57;100.00;91482.19;2101597;28;20024;-87
2021/12/02 03:42:07;;;;;;;2.55;0.70;;;;;;;0.57;100.00;91478.81;2096474;28;20058;-88
2021/12/02 03:43:16;;;;;;;3.85;0.50;;;;;;;0.74;100.00;91472.59;2085075;28;20087;-86
2021/12/02 03:44:17;;;;;;;1.55;0.65;;;;;;;0.62;100.00;91471.25;2091984;28;20516;-87
2021/12/02 03:45:21;;;;;;;2.00;0.63;;;;;;;0.58;100.00;91477.69;2082769;28;20494;-87
2021/12/02 03:46:24;;;;;;;0.77;0.70;;;;;;;0.63;100.00;91472.00;2083126;28;20387;-87
2021/12/02 03:47:25;;;;;;;1.90;0.63;;;;;;;0.62;100.00;91473.13;2095708;28;20036;-86
2021/12/02 03:48:26;;;;;;;2.95;0.65;;;;;;;0.61;100.00;91474.25;2083651;28;20017;-87
2021/12/02 03:49:27;;;;;;;0.77;0.57;;;;;;;0.62;100.00;91475.75;2089805;28;20429;-88
2021/12/02 03:50:28;;;;;;;0.60;0.50;;;;;;;0.57;100.00;91461.16;2084035;28;20071;-85
2021/12/02 03:51:29;;;;;;;3.10;0.73;;;;;;;0.66;100.00;91465.94;2101752;28;20562;-88
2021/12/02 03:52:30;;;;;;;2.17;0.70;;;;;;;0.71;100.00;91462.88;2098493;28;20038;-87
2021/12/02 03:53:31;;;;;;;1.67;0.68;;;;;;;0.82;100.00;91466.13;2097493;28;20026;-86
2021/12/02 03:54:32;;;;;;;0.75;0.50;;;;;;;0.75;100.00;91458.34;2094402;28;20119;-89
2021/12/02 03:55:33;;;;;;;1.52;0.52;;;;;;;0.76;100.00;91454.56;2083961;28;20378;-88
2021/12/02 03:56:34;;;;;;;0.82;0.50;;;;;;;0.81;100.00;91458.63;2096899;28;20021;-89
2021/12/02 03:57:35;;;;;;;4.50;0.90;;;;;;;0.68;100.00;91456.53;2082048;28;20017;-88
2021/12/02 03:58:39;;;;;;;1.83;0.50;;;;;;;0.71;100.00;91465.50;2078055;28;20089;-89
2021/12/02 03:59:40;;;;;;;1.10;0.70;;;;;;;0.93;100.00;91464.09;2090890;28;20067;-87
2021/12/02 04:00:41;;;;;;;3.22;0.95;;;;;;;0.77;100.00;91460.56;2084971;28;20032;-87
2021/12/02 04:01:43;;;;;;;1.65;0.63;;;;;;;0.73;100.00;91450.81;2095777;28;20178;-87
2021/12/02 04:02:43;;;;;;;1.00;0.88;;;;;;;0.70;100.00;91453.50;2085176;28;20021;-87
2021/12/02 04:03:52;;;;;;;1.25;0.60;;;;;;;0.58;100.00;91454.78;2095347;28;20120;-88
2021/12/02 04:04:53;;;;;;;2.53;0.55;;;;;;;0.81;100.00;91453.38;2097045;28;20090;-88
2021/12/02 04:05:54;;;;;;;1.42;0.60;;;;;;;0.80;100.00;91455.25;2093692;28;20033;-87
2021/12/02 04:06:55;;;;;;;2.65;0.77;;;;;;;0.72;100.00;91445.97;2090594;28;20044;-87
2021/12/02 04:07:59;;;;;;;0.90;0.70;;;;;;;0.82;100.00;91446.97;2100064;28;20020;-89
2021/12/02 04:09:05;;;;;;;2.70;0.70;;;;;;;0.81;100.00;91448.13;2085764;28;20033;-88
2021/12/02 04:10:06;;;;;;;2.08;0.70;;;;;;;0.85;100.00;91444.28;2083781;28;20025;-90
2021/12/02 04:12:49;;;;;;;1.23;0.50;;;;;;;0.94;100.00;91449.81;2102200;28;20043;-88
2021/12/02 04:15:22;;;;;;;4.35;0.57;;;;;;;0.97;100.00;91440.41;2110023;27;20034;-87
2021/12/02 04:16:27;;;;;;;1.63;0.70;;;;;;;0.77;100.00;91442.88;2092332;28;20025;-88
2021/12/02 04:17:41;;;;;;;1.10;0.88;;;;;;;0.69;100.00;91444.13;2098372;28;20477;-88
2021/12/02 04:18:48;;;;;;;1.27;0.50;;;;;;;0.77;100.00;91442.88;2103190;28;20954;-88
2021/12/02 04:19:49;;;;;;;1.60;0.60;;;;;;;0.74;100.00;91436.53;2087648;28;20024;-87
2021/12/02 04:20:52;;;;;;;2.10;0.77;;;;;;;0.79;100.00;91430.09;2088877;28;20025;-88
2021/12/02 04:21:54;;;;;;;1.60;0.60;;;;;;;0.92;100.00;91438.19;2094296;28;20055;-88
2021/12/02 04:22:56;;;;;;;1.13;0.50;;;;;;;0.95;100.00;91446.03;2094627;28;20119;-87
2021/12/02 04:23:57;;;;;;;0.80;0.80;;;;;;;1.00;100.00;91444.84;2098825;28;20036;-88
2021/12/02 04:24:58;;;;;;;5.65;0.85;;;;;;;0.92;100.00;91441.59;2093492;28;20104;-88
2021/12/02 04:25:59;;;;;;;2.25;0.80;;;;;;;0.92;100.00;91446.84;2086874;28;20025;-87
2021/12/02 04:27:01;;;;;;;3.22;0.80;;;;;;;0.81;100.00;91446.22;2095229;28;20020;-87
2021/12/02 04:28:03;;;;;;;2.38;0.70;;;;;;;0.72;100.00;91443.34;2092855;28;20385;-86
2021/12/02 04:29:03;;;;;;;1.50;0.70;;;;;;;0.69;100.00;91444.13;2095802;28;20480;-87
2021/12/02 04:30:07;;;;;;;1.63;0.60;;;;;;;0.64;100.00;91450.56;2095632;28;20032;-88
2021/12/02 04:31:08;;;;;;;1.48;0.68;;;;;;;0.59;100.00;91450.25;2084931;28;20096;-87
2021/12/02 04:32:10;;;;;;;2.28;0.65;;;;;;;0.61;100.00;91447.97;2094027;28;20492;-88
2021/12/02 04:33:10;;;;;;;0.73;0.55;;;;;;;0.62;100.00;91452.09;2091602;28;20108;-87
2021/12/02 04:34:12;;;;;;;1.65;0.77;;;;;;;0.65;100.00;91448.66;2095474;28;20473;-88
2021/12/02 04:35:14;;;;;;;2.08;0.52;;;;;;;0.70;100.00;91445.59;2095450;28;20070;-86
2021/12/02 04:36:15;;;;;;;2.53;0.88;;;;;;;0.66;100.00;91440.41;2093579;28;20420;-88
2021/12/02 04:37:16;;;;;;;1.27;0.60;;;;;;;0.61;100.00;91440.06;2101952;28;20025;-85
2021/12/02 04:38:17;;;;;;;1.30;0.52;;;;;;;0.77;100.00;91440.25;2102413;28;20051;-86
2021/12/02 04:39:18;;;;;;;1.02;0.60;;;;;;;0.78;100.00;91446.25;2097765;28;20016;-86
2021/12/02 04:40:24;;;;;;;0.93;0.60;;;;;;;0.77;100.00;91447.41;2090398;28;20029;-87
2021/12/02 04:41:25;;;;;;;8.20;0.73;;;;;;;0.64;100.00;91442.66;2082665;28;20025;-86
2021/12/02 04:42:27;;;;;;;0.65;0.50;;;;;;;0.63;100.00;91438.56;2080147;28;20775;-86
2021/12/02 04:43:28;;;;;;;0.90;0.68;;;;;;;0.62;100.00;91442.34;2085960;28;20018;-86
2021/12/02 04:44:29;;;;;;;1.60;0.80;;;;;;;0.64;100.00;91439.28;2088266;28;20027;-86
2021/12/02 04:45:41;;;;;;;2.58;0.60;;;;;;;0.62;100.00;91438.97;2089969;28;20729;-86
2021/12/02 04:46:42;;;;;;;1.38;0.60;;;;;;;1.03;100.00;91443.31;2091326;28;20024;-87
2021/12/02 04:47:49;;;;;;;0.65;0.50;;;;;;;1.06;100.00;91439.91;2084666;28;20052;-86
2021/12/02 04:48:50;;;;;;;1.55;0.65;;;;;;;0.86;100.00;91435.25;2089957;28;20057;-86
2021/12/02 04:49:51;;;;;;;1.35;0.63;;;;;;;0.77;100.00;91442.16;2087965;28;20057;-86
2021/12/02 04:50:52;;;;;;;0.80;0.60;;;;;;;0.73;100.00;91432.41;2089636;28;20100;-85
2021/12/02 04:51:53;;;;;;;3.38;0.80;;;;;;;0.72;100.00;91438.06;2094358;28;20017;-86
2021/12/02 04:52:55;;;;;;;1.20;0.40;;;;;;;0.70;100.00;91438.47;2101808;28;20108;-86
2021/12/02 04:53:56;;;;;;;0.50;0.50;;;;;;;0.80;100.00;91436.84;2103007;28;20562;-86
2021/12/02 04:54:57;;;;;;;2.47;0.55;;;;;;;0.81;100.00;91440.22;2093964;28;20016;-87
2021/12/02 04:55:58;;;;;;;2.10;0.50;;;;;;;0.95;100.00;91435.50;2089991;28;20445;-89
2021/12/02 04:57:00;;;;;;;2.13;0.75;;;;;;;0.88;100.00;91440.88;2085531;28;20454;-88
2021/12/02 04:58:01;;;;;;;1.27;0.45;;;;;;;0.82;100.00;91431.94;2092264;28;20389;-87
2021/12/02 04:59:02;;;;;;;0.57;0.43;;;;;;;0.71;100.00;91439.22;2092850;28;20131;-87
2021/12/02 05:00:04;;;;;;;1.63;0.40;;;;;;;0.68;100.00;91432.13;2103991;28;20618;-87
2021/12/02 05:01:05;;;;;;;2.50;0.50;;;;;;;0.75;100.00;91427.53;2110941;27;20030;-87
2021/12/02 05:02:06;;;;;;;1.48;0.63;;;;;;;0.87;100.00;91439.38;2100124;28;20799;-87
2021/12/02 05:03:07;;;;;;;0.82;0.40;;;;;;;0.79;100.00;91434.59;2089870;28;20017;-87
2021/12/02 05:04:09;;;;;;;1.90;0.60;;;;;;;1.05;100.00;91435.75;2089792;28;20032;-89
2021/12/02 05:05:10;;;;;;;1.45;0.60;;;;;;;1.01;100.00;91427.94;2096514;28;20017;-87
2021/12/02 05:06:15;;;;;;;0.40;0.40;;;;;;;0.84;100.00;91431.56;2083022;28;20512;-87
2021/12/02 05:07:16;;;;;;;1.67;0.70;;;;;;;0.90;100.00;91428.06;2089998;28;20058;-89
2021/12/02 05:08:20;;;;;;;0.80;0.40;;;;;;;0.82;100.00;91423.28;2087537;28;20025;-88
2021/12/02 05:09:22;;;;;;;0.85;0.50;;;;;;;0.90;100.00;91432.59;2107128;28;20116;-89
2021/12/02 05:10:23;;;;;;;1.23;1.08;;;;;;;0.80;100.00;91425.59;2106362;28;20030;-88
2021/12/02 05:11:27;;;;;;;2.63;2.42;;;;;;;0.79;100.00;91430.09;2097822;28;20036;-87
2021/12/02 05:12:28;;;;;;;1.10;0.70;;;;;;;0.94;100.00;91422.78;2090936;28;20120;-87
2021/12/02 05:13:29;;;;;;;0.80;0.73;;;;;;;0.84;100.00;91424.41;2089800;28;20035;-88
2021/12/02 05:14:30;;;;;;;1.60;1.40;;;;;;;0.82;100.00;91428.56;2098025;28;20042;-87
2021/12/02 05:15:31;;;;;;;2.17;1.30;;;;;;;0.71;100.00;91421.56;2083756;28;20504;-87
2021/12/02 05:16:32;;;;;;;1.85;1.00;;;;;;;0.63;100.00;91422.78;2098209;28;20024;-87